Seligman, AZ

09:17 AM MST del 29 Marzo 2015 (GMT -0700)
Williams | | Change Station
CLOSE
Current Station
Aeroporto
Location: Williams,
Altitudine: 6680 ft
Stazioni meteo nelle vicinanze

Alt. 6680 ft 35.31 °N, 112.19 °W | Updated 22 minutes ago

Sereno
Sereno
61 °F
Sembra 61 °F
N
0
Vento Variabile Vento da Nord

Oggi
Massima -- | Minima -- °F
--% Possibilità di precip.
Ieri
Massima -- | Minima -- °F
Precip. -- in
6:22 AM 6:50 PM
Gobba a ponente, 72% visible
Pressione 30.40 in
Visibilità 10.0 miglia
Nuvole Sereno
Punto di rugiada 19 °F
Umidità 20%
Piovosità 0.00 in
Spessore del manto nevoso Non disponibile.
Raggi UV 3 fuori da 12
Polline 11.50 fuori da 12
Qualità dell'aria Non disponibile.
Flu Activity Non disponibile.
METAR KCMR 291555Z AUTO 00000KT 10SM CLR 16/M07 A3040 RMK AO2

More Conditions Fewer Conditions

Pressione 30.40 in
Visibilità 10.0 miglia
Nuvole Sereno
Punto di rugiada 19 °F
Umidità 20%
Piovosità 0.00 in
Spessore del manto nevoso Non disponibile.
Raggi UV 3 fuori da 12
Polline 11.50 fuori da 12
Qualità dell'aria Non disponibile.
Flu Activity Non disponibile.
METAR KCMR 291555Z AUTO 00000KT 10SM CLR 16/M07 A3040 RMK AO2

More Conditions Fewer Conditions

10-Day Weather Forecast

Almanac

Astronomia

Mar. 29, 2015 Alba Tramonto
Ora attuale
Crepuscolo civile
Crepuscolo nautico
Crepuscolo astronomico
Luna
Estensione della luce visibile
Lunghezza del giorno
Tomorrow will be .
, % of the Moon is Illuminated

Gli estremi di oggi

State Highs State Lows

Community

WunderPhotos

Upload Photos

1,809,279 foto caricate!

WunderBlogs® & News

Nearby

Qualità dell'aria

  Qualità dell'aria Indice AQ Inquinante
Not available.

Profondità neve

Stazione Profondità Altitudine

Attività sismica

Città  Distanza Mag. Data & Ora
Minimo Magnitudo Mostrato è 2.5.

Temperature delle acque costiere

Località Temperatura

Stations

Stazioni meteo nelle vicinanze

Ubicazione della stazione Temp. Raffreddamento del vento Punto di rugiada Umidità Vento Precip. Alt. Aggiornato Tipo